Time;durP1;ratioP1;P1;durP2;ratioP2;P2;SDS_P1;SDS_P2;PMS_P1;PMS_P2;Temp;Humidity;BMP_temperature;BMP_pressure;BME280_temperature;BME280_humidity;BME280_pressure;Samples;Min_cycle;Max_cycle;Signal;HPM_P1;HPM_P2
2023/05/02 00:00:37;;;;;;;36.93;14.17;;;;;;;10.77;100.00;63819.56;4973445;28;20099;-88
2023/05/02 00:03:04;;;;;;;28.25;13.57;;;;;;;10.77;100.00;63819.31;4976444;28;20049;-88
2023/05/02 00:05:30;;;;;;;25.57;14.03;;;;;;;10.77;100.00;63818.91;4975089;28;20019;-88
2023/05/02 00:07:56;;;;;;;31.42;13.18;;;;;;;10.76;100.00;63818.41;4980549;28;20039;-90
2023/05/02 00:10:21;;;;;;;32.97;13.53;;;;;;;10.76;100.00;63818.41;4958108;28;20107;-89
2023/05/02 00:12:46;;;;;;;23.93;12.87;;;;;;;10.76;100.00;63818.31;4956375;28;20299;-89
2023/05/02 00:15:12;;;;;;;28.40;13.57;;;;;;;10.76;100.00;63818.72;4948981;28;20479;-89
2023/05/02 00:17:40;;;;;;;25.63;13.10;;;;;;;10.76;100.00;63818.81;4974163;28;20030;-89
2023/05/02 00:20:08;;;;;;;29.65;13.85;;;;;;;10.75;100.00;63818.56;4966059;28;20042;-89
2023/05/02 00:22:33;;;;;;;32.05;14.30;;;;;;;10.75;100.00;63817.81;4956367;28;20023;-89
2023/05/02 00:24:58;;;;;;;27.10;13.53;;;;;;;10.74;100.00;63816.97;4972437;28;20023;-89
2023/05/02 00:27:24;;;;;;;31.63;14.30;;;;;;;10.74;100.00;63816.56;4973427;28;20046;-88
2023/05/02 00:29:51;;;;;;;28.43;14.03;;;;;;;10.74;100.00;63816.31;4967032;28;20369;-89
2023/05/02 00:32:16;;;;;;;30.80;14.13;;;;;;;10.73;100.00;63816.09;4956307;28;20022;-89
2023/05/02 00:34:42;;;;;;;28.80;13.87;;;;;;;10.73;100.00;63815.91;4973359;28;20577;-89
2023/05/02 00:37:07;;;;;;;28.37;14.80;;;;;;;10.73;100.00;63815.31;4972530;28;20094;-89
2023/05/02 00:39:35;;;;;;;28.87;14.87;;;;;;;10.73;100.00;63815.25;4960802;28;20723;-88
2023/05/02 00:42:01;;;;;;;30.45;14.18;;;;;;;10.72;100.00;63815.09;4972267;28;20027;-88
2023/05/02 00:44:27;;;;;;;31.17;14.68;;;;;;;10.72;100.00;63813.81;4940398;28;20567;-89
2023/05/02 00:46:54;;;;;;;29.35;13.10;;;;;;;10.70;100.00;63812.25;4933202;29;20122;-88
2023/05/02 00:49:19;;;;;;;27.05;12.73;;;;;;;10.68;100.00;63810.50;4941239;28;20042;-88
2023/05/02 00:51:45;;;;;;;24.73;11.77;;;;;;;10.66;100.00;63808.25;4937863;28;20039;-88
2023/05/02 00:54:12;;;;;;;25.37;12.70;;;;;;;10.64;100.00;63805.59;4933195;29;20610;-88
2023/05/02 00:56:37;;;;;;;28.65;13.63;;;;;;;10.60;100.00;63802.28;4936066;28;20078;-89
2023/05/02 00:59:04;;;;;;;26.77;12.87;;;;;;;10.58;100.00;63799.69;4957576;28;20060;-88
2023/05/02 01:01:56;;;;;;;29.17;13.30;;;;;;;10.55;100.00;63796.78;4972437;28;20065;-88
2023/05/02 01:04:38;;;;;;;28.65;12.05;;;;;;;10.52;100.00;63794.28;4954511;28;20070;-88
2023/05/02 01:07:39;;;;;;;18.33;9.70;;;;;;;10.49;100.00;63791.72;4952752;29;20031;-89
2023/05/02 01:10:19;;;;;;;17.13;8.55;;;;;;;10.47;100.00;63788.63;4948894;28;20549;-88
2023/05/02 01:12:47;;;;;;;15.50;8.55;;;;;;;10.43;100.00;63785.16;4936142;28;20483;-89
2023/05/02 01:15:20;;;;;;;19.27;8.80;;;;;;;10.39;100.00;63781.00;4932771;29;20035;-88
2023/05/02 01:17:48;;;;;;;15.70;9.05;;;;;;;10.35;100.00;63776.81;4933355;29;20051;-88
2023/05/02 01:20:19;;;;;;;15.35;8.30;;;;;;;10.31;100.00;63772.59;4949294;28;20028;-89
2023/05/02 01:22:46;;;;;;;20.10;8.60;;;;;;;10.27;100.00;63768.84;4945939;28;20036;-88
2023/05/02 01:25:32;;;;;;;16.87;8.67;;;;;;;10.23;100.00;63765.09;4942813;29;20309;-88
2023/05/02 01:28:28;;;;;;;18.23;8.70;;;;;;;10.20;100.00;63761.28;4969518;28;20039;-89
2023/05/02 01:30:55;;;;;;;18.17;8.60;;;;;;;10.17;100.00;63758.53;4975709;28;20501;-89
2023/05/02 01:33:23;;;;;;;15.40;8.63;;;;;;;10.14;100.00;63755.31;4975209;28;20058;-88
2023/05/02 01:35:51;;;;;;;18.65;8.63;;;;;;;10.12;100.00;63752.78;4974903;28;20516;-88
2023/05/02 01:38:17;;;;;;;17.45;9.35;;;;;;;10.09;100.00;63750.56;4969667;28;20042;-88
2023/05/02 01:40:49;;;;;;;19.15;9.57;;;;;;;10.07;100.00;63748.16;4950783;28;20541;-87
2023/05/02 01:43:17;;;;;;;18.05;9.25;;;;;;;10.04;100.00;63746.00;4978301;23;20051;-88
2023/05/02 01:46:03;;;;;;;18.45;8.65;;;;;;;10.02;100.00;63743.25;4956714;23;20182;-88
2023/05/02 01:48:29;;;;;;;15.33;7.90;;;;;;;9.99;100.00;63741.16;4963773;28;20026;-88
2023/05/02 01:50:56;;;;;;;14.33;8.07;;;;;;;9.97;100.00;63739.25;4953601;29;20295;-88
2023/05/02 01:53:24;;;;;;;17.98;8.13;;;;;;;9.96;100.00;63737.19;4936221;29;20038;-88
2023/05/02 01:55:52;;;;;;;12.80;7.70;;;;;;;9.93;100.00;63735.19;4955507;29;20031;-89
2023/05/02 01:58:19;;;;;;;15.05;7.97;;;;;;;9.92;100.00;63733.69;4946927;28;20090;-89
2023/05/02 02:00:45;;;;;;;15.98;8.57;;;;;;;9.90;100.00;63732.03;4942599;29;20402;-88
2023/05/02 02:03:11;;;;;;;15.73;8.82;;;;;;;9.89;100.00;63730.53;4935838;29;20024;-88
2023/05/02 02:05:39;;;;;;;16.30;9.47;;;;;;;9.88;100.00;63729.28;4935925;29;20039;-88
2023/05/02 02:08:04;;;;;;;17.85;8.73;;;;;;;9.87;100.00;63728.13;4946973;29;20039;-88
2023/05/02 02:10:36;;;;;;;18.38;9.25;;;;;;;9.85;100.00;63727.13;4954435;29;20034;-88
2023/05/02 02:13:25;;;;;;;17.25;8.70;;;;;;;9.85;100.00;63727.19;4955105;29;20027;-88
2023/05/02 02:15:56;;;;;;;18.88;9.27;;;;;;;9.85;100.00;63726.97;4949884;29;20043;-88
2023/05/02 02:18:26;;;;;;;18.37;8.43;;;;;;;9.85;100.00;63726.38;4936790;29;20035;-88
2023/05/02 02:20:52;;;;;;;18.20;9.23;;;;;;;9.84;100.00;63726.03;4952967;29;20370;-88
2023/05/02 02:23:19;;;;;;;19.00;9.07;;;;;;;9.84;100.00;63725.72;4927743;29;20031;-89
2023/05/02 02:25:45;;;;;;;18.80;9.95;;;;;;;9.84;100.00;63725.88;4947369;29;20031;-89
2023/05/02 02:28:11;;;;;;;18.00;9.25;;;;;;;9.83;100.00;63725.31;4953323;29;20090;-89
2023/05/02 02:30:36;;;;;;;19.83;9.10;;;;;;;9.83;100.00;63725.19;4954418;29;20047;-89
2023/05/02 02:33:02;;;;;;;19.67;9.70;;;;;;;9.83;100.00;63725.13;4963821;29;20035;-88
2023/05/02 02:35:34;;;;;;;21.10;10.80;;;;;;;9.83;100.00;63724.88;4947535;28;20049;-89
2023/05/02 02:38:37;;;;;;;24.40;10.65;;;;;;;9.82;100.00;63724.47;4959286;29;20451;-88
2023/05/02 02:41:12;;;;;;;22.97;12.27;;;;;;;9.82;100.00;63723.97;4953181;29;20058;-88
2023/05/02 02:43:59;;;;;;;24.33;12.50;;;;;;;9.82;100.00;63723.78;4960869;29;20289;-89
2023/05/02 02:46:27;;;;;;;25.15;11.88;;;;;;;9.82;100.00;63723.56;4941995;29;20043;-89
2023/05/02 02:49:17;;;;;;;21.95;12.18;;;;;;;9.81;100.00;63723.31;4950875;29;20071;-89
2023/05/02 02:51:52;;;;;;;21.88;12.13;;;;;;;9.81;100.00;63722.63;4938875;29;20186;-89
2023/05/02 02:54:26;;;;;;;21.90;11.80;;;;;;;9.81;100.00;63722.22;4935480;29;20175;-89
2023/05/02 02:57:17;;;;;;;22.13;11.20;;;;;;;9.80;100.00;63721.63;4917810;29;20042;-88
2023/05/02 03:00:18;;;;;;;19.58;11.07;;;;;;;9.79;100.00;63720.97;4943925;29;20043;-88
2023/05/02 03:02:46;;;;;;;25.13;12.50;;;;;;;9.79;100.00;63720.81;4940441;29;20043;-89
2023/05/02 03:05:12;;;;;;;22.50;12.25;;;;;;;9.78;100.00;63719.72;4936768;29;20380;-90
2023/05/02 03:07:38;;;;;;;24.13;13.30;;;;;;;9.77;100.00;63718.75;4954040;29;20035;-90
2023/05/02 03:10:04;;;;;;;23.17;12.87;;;;;;;9.76;100.00;63718.22;4955182;29;20290;-90
2023/05/02 03:12:30;;;;;;;22.67;12.45;;;;;;;9.76;100.00;63717.75;4955464;29;20110;-90
2023/05/02 03:15:07;;;;;;;27.27;14.40;;;;;;;9.75;100.00;63717.56;4954852;29;20102;-90
2023/05/02 03:17:33;;;;;;;23.67;13.48;;;;;;;9.75;100.00;63716.56;4945770;29;20086;-89
2023/05/02 03:19:58;;;;;;;24.67;12.73;;;;;;;9.74;100.00;63715.81;4935087;29;20111;-89
2023/05/02 03:22:23;;;;;;;25.40;13.60;;;;;;;9.73;100.00;63715.06;4946037;29;20042;-89
2023/05/02 03:24:48;;;;;;;24.73;13.53;;;;;;;9.73;100.00;63714.00;4951911;29;20039;-89
2023/05/02 03:27:14;;;;;;;25.83;13.53;;;;;;;9.72;100.00;63713.81;4940006;29;20078;-90
2023/05/02 03:29:39;;;;;;;24.47;12.83;;;;;;;9.72;100.00;63713.00;4953784;29;20031;-90
2023/05/02 03:32:04;;;;;;;23.43;13.30;;;;;;;9.71;100.00;63712.66;4953804;29;20105;-89
2023/05/02 03:34:30;;;;;;;23.70;12.73;;;;;;;9.70;100.00;63712.34;4954278;29;20038;-90
2023/05/02 03:36:55;;;;;;;21.40;12.80;;;;;;;9.70;100.00;63711.81;4949846;29;20507;-89
2023/05/02 03:39:20;;;;;;;21.83;12.40;;;;;;;9.69;100.00;63710.94;4939791;29;20034;-89
2023/05/02 03:41:46;;;;;;;23.67;13.33;;;;;;;9.68;100.00;63710.66;4954435;29;20038;-90
2023/05/02 03:44:11;;;;;;;25.90;12.85;;;;;;;9.68;100.00;63709.75;4954264;29;20024;-89
2023/05/02 03:46:37;;;;;;;22.87;12.57;;;;;;;9.67;100.00;63709.41;4952869;28;20501;-89
2023/05/02 03:49:02;;;;;;;21.67;11.87;;;;;;;9.66;100.00;63708.41;4938326;29;20023;-88
2023/05/02 03:51:27;;;;;;;24.20;11.93;;;;;;;9.64;100.00;63707.66;4934549;29;20028;-90
2023/05/02 03:53:53;;;;;;;19.23;11.53;;;;;;;9.63;100.00;63706.44;4935223;29;20399;-90
2023/05/02 03:56:19;;;;;;;23.60;11.48;;;;;;;9.62;100.00;63705.59;4955512;29;20039;-90
2023/05/02 03:58:45;;;;;;;15.85;8.80;;;;;;;9.61;100.00;63704.19;4943689;29;20028;-88
2023/05/02 04:01:14;;;;;;;24.73;8.47;;;;;;;9.60;100.00;63703.50;4948791;29;20541;-89
2023/05/02 04:03:40;;;;;;;15.02;7.05;;;;;;;9.59;100.00;63702.50;4960212;29;20652;-89
2023/05/02 04:06:05;;;;;;;14.63;6.35;;;;;;;9.58;100.00;63701.63;4927253;29;20066;-90
2023/05/02 04:08:31;;;;;;;15.80;6.37;;;;;;;9.58;100.00;63700.88;4947200;29;20023;-89
2023/05/02 04:10:56;;;;;;;13.57;5.47;;;;;;;9.57;100.00;63700.53;4940614;29;20112;-89
2023/05/02 04:13:21;;;;;;;9.70;4.47;;;;;;;9.57;100.00;63700.19;4955294;29;20493;-88
2023/05/02 04:15:48;;;;;;;13.10;4.10;;;;;;;9.55;100.00;63699.28;4953984;29;20039;-89
2023/05/02 04:18:13;;;;;;;11.73;3.15;;;;;;;9.54;100.00;63697.47;4952834;29;20074;-89
2023/05/02 04:20:43;;;;;;;12.47;2.87;;;;;;;9.52;100.00;63696.13;4945278;29;20101;-89
2023/05/02 04:23:08;;;;;;;11.05;2.60;;;;;;;9.50;100.00;63693.72;4930254;29;20019;-89
2023/05/02 04:25:33;;;;;;;6.67;2.07;;;;;;;9.47;100.00;63691.31;4953266;29;20034;-89
2023/05/02 04:27:58;;;;;;;6.67;1.97;;;;;;;9.45;100.00;63688.63;4952759;29;20391;-89
2023/05/02 04:30:24;;;;;;;7.25;1.75;;;;;;;9.42;100.00;63685.66;4930748;29;20035;-89
2023/05/02 04:32:49;;;;;;;5.83;1.57;;;;;;;9.40;100.00;63683.50;4933960;29;20028;-89
2023/05/02 04:35:15;;;;;;;6.33;1.70;;;;;;;9.37;100.00;63680.69;4932881;29;20085;-89
2023/05/02 04:37:40;;;;;;;7.05;1.90;;;;;;;9.34;100.00;63678.03;4933693;29;20032;-89
2023/05/02 04:40:07;;;;;;;4.63;1.80;;;;;;;9.32;100.00;63675.59;4936550;29;20028;-89
2023/05/02 04:42:32;;;;;;;7.32;1.70;;;;;;;9.29;100.00;63673.69;4925669;29;20471;-90
2023/05/02 04:44:57;;;;;;;6.77;1.67;;;;;;;9.28;100.00;63671.78;4933015;29;20028;-90
2023/05/02 04:47:22;;;;;;;9.30;1.80;;;;;;;9.25;100.00;63669.38;4933514;29;20019;-90
2023/05/02 04:49:48;;;;;;;3.80;1.30;;;;;;;9.23;100.00;63667.06;4939324;29;20098;-90
2023/05/02 04:52:13;;;;;;;6.13;1.20;;;;;;;9.20;100.00;63665.13;4940182;29;20490;-90
2023/05/02 04:54:39;;;;;;;3.75;0.90;;;;;;;9.19;100.00;63663.56;4950654;29;20026;-90
2023/05/02 04:57:06;;;;;;;6.75;1.38;;;;;;;9.17;100.00;63661.66;4951915;29;20446;-90
2023/05/02 04:59:32;;;;;;;4.50;1.00;;;;;;;9.15;100.00;63660.59;4954193;28;20035;-89
2023/05/02 05:01:58;;;;;;;2.83;1.10;;;;;;;9.14;100.00;63659.59;4939617;29;20751;-90
2023/05/02 05:04:23;;;;;;;7.55;1.45;;;;;;;9.14;100.00;63659.16;4940151;29;20024;-90
2023/05/02 05:06:49;;;;;;;7.93;1.10;;;;;;;9.14;100.00;63659.00;4922237;29;20031;-90
2023/05/02 05:09:14;;;;;;;5.83;1.43;;;;;;;9.14;100.00;63658.91;4940730;29;20094;-89
2023/05/02 05:11:41;;;;;;;4.93;1.15;;;;;;;9.14;100.00;63659.25;4947882;28;20089;-89
2023/05/02 05:14:07;;;;;;;3.92;1.30;;;;;;;9.14;100.00;63659.47;4955942;28;20031;-89
2023/05/02 05:16:33;;;;;;;3.53;1.20;;;;;;;9.14;100.00;63659.91;4953165;29;20036;-89
2023/05/02 05:18:58;;;;;;;7.43;1.33;;;;;;;9.14;100.00;63659.91;4939776;29;20031;-90
2023/05/02 05:21:24;;;;;;;4.93;1.33;;;;;;;9.14;100.00;63659.47;4940651;29;20044;-90
2023/05/02 05:23:53;;;;;;;7.38;1.65;;;;;;;9.13;100.00;63658.91;4940811;29;20036;-90
2023/05/02 05:26:19;;;;;;;5.28;1.30;;;;;;;9.13;100.00;63658.31;4943718;29;20023;-91
2023/05/02 05:28:45;;;;;;;5.47;1.10;;;;;;;9.13;100.00;63658.41;4962396;29;20034;-87
2023/05/02 05:31:12;;;;;;;3.97;0.90;;;;;;;9.12;100.00;63658.09;4955742;29;20036;-88
2023/05/02 05:33:38;;;;;;;6.20;1.48;;;;;;;9.11;100.00;63656.84;4958354;28;20094;-88
2023/05/02 05:36:08;;;;;;;5.35;1.35;;;;;;;9.10;100.00;63656.16;4953722;29;20486;-92
2023/05/02 05:38:34;;;;;;;6.38;1.38;;;;;;;9.10;100.00;63656.16;4933060;29;20434;-89
2023/05/02 05:41:00;;;;;;;5.85;1.45;;;;;;;9.10;100.00;63656.75;4952890;29;20027;-89
2023/05/02 05:43:26;;;;;;;4.87;1.40;;;;;;;9.10;99.62;63656.50;4959863;28;20030;-89
2023/05/02 05:45:52;;;;;;;2.88;0.95;;;;;;;9.09;98.61;63656.16;4944145;28;20058;-87
2023/05/02 05:48:18;;;;;;;5.00;1.10;;;;;;;9.09;97.48;63654.75;4938416;29;20681;-87
2023/05/02 05:50:44;;;;;;;2.45;0.98;;;;;;;9.08;97.78;63654.00;4951209;29;20118;-87
2023/05/02 05:53:09;;;;;;;5.17;1.30;;;;;;;9.07;98.50;63653.84;4957943;28;20502;-87
2023/05/02 05:55:36;;;;;;;2.97;1.05;;;;;;;9.07;96.68;63653.69;4958026;29;20482;-85
2023/05/02 05:58:02;;;;;;;6.07;1.20;;;;;;;9.06;97.15;63652.09;4956099;28;20143;-87
2023/05/02 06:00:27;;;;;;;4.90;1.03;;;;;;;9.05;97.35;63651.94;4942485;29;20063;-85
2023/05/02 06:02:53;;;;;;;3.67;1.10;;;;;;;9.05;97.94;63651.44;4939488;28;20027;-86
2023/05/02 06:05:18;;;;;;;3.80;1.33;;;;;;;9.05;97.14;63651.94;4943969;28;20035;-87
2023/05/02 06:07:43;;;;;;;4.10;1.40;;;;;;;9.05;97.49;63652.41;4952745;29;20028;-87
2023/05/02 06:10:09;;;;;;;4.17;1.10;;;;;;;9.06;95.83;63653.00;4947370;28;20715;-87
2023/05/02 06:12:35;;;;;;;9.30;1.10;;;;;;;9.08;94.28;63654.75;4946446;29;20078;-87
2023/05/02 06:15:00;;;;;;;5.13;1.00;;;;;;;9.10;93.86;63657.00;4940183;28;20298;-86
2023/05/02 06:17:26;;;;;;;4.23;1.13;;;;;;;9.13;92.79;63660.56;4953536;28;20029;-86
2023/05/02 06:19:52;;;;;;;4.33;1.13;;;;;;;9.17;91.96;63664.22;4943779;28;20091;-89
2023/05/02 06:22:18;;;;;;;9.17;1.30;;;;;;;9.21;92.51;63668.28;4950975;29;20299;-89
2023/05/02 06:24:43;;;;;;;5.10;1.30;;;;;;;9.25;92.94;63672.28;4946394;28;20078;-90
2023/05/02 06:27:08;;;;;;;7.80;1.60;;;;;;;9.29;92.95;63676.25;4944448;29;20664;-87
2023/05/02 06:29:34;;;;;;;6.60;1.70;;;;;;;9.34;92.15;63680.81;4948040;29;20023;-87
2023/05/02 06:31:59;;;;;;;7.03;1.60;;;;;;;9.38;91.60;63685.81;4953428;28;20113;-87
2023/05/02 06:34:24;;;;;;;8.07;1.87;;;;;;;9.43;92.53;63690.22;4946106;28;20045;-87
2023/05/02 06:36:54;;;;;;;8.00;1.30;;;;;;;9.47;92.91;63695.03;4939104;29;20027;-85
2023/05/02 06:39:20;;;;;;;7.97;1.57;;;;;;;9.51;93.15;63699.19;4938751;28;20287;-93
2023/05/02 06:41:45;;;;;;;9.93;1.52;;;;;;;9.56;92.15;63703.75;4935864;28;20016;-86
2023/05/02 06:44:10;;;;;;;5.97;1.30;;;;;;;9.61;91.93;63709.06;4939910;28;20391;-89
2023/05/02 06:46:36;;;;;;;8.57;1.40;;;;;;;9.67;90.47;63714.88;4949459;29;20125;-89
2023/05/02 06:49:01;;;;;;;5.83;1.60;;;;;;;9.72;88.96;63720.88;4947639;29;20023;-90
2023/05/02 06:51:26;;;;;;;5.60;1.60;;;;;;;9.78;89.45;63727.09;4950349;29;20063;-91
2023/05/02 06:53:51;;;;;;;8.50;1.87;;;;;;;9.85;89.36;63733.84;4943166;29;20031;-92
2023/05/02 06:56:17;;;;;;;6.97;1.60;;;;;;;9.92;88.47;63740.97;4949210;29;20502;-92
2023/05/02 06:58:42;;;;;;;9.73;1.53;;;;;;;9.99;87.01;63748.28;4949477;29;20034;-89
2023/05/02 07:01:07;;;;;;;7.70;1.60;;;;;;;10.07;86.92;63756.09;4940163;29;20465;-87
2023/05/02 07:03:34;;;;;;;6.82;1.77;;;;;;;10.15;84.67;63764.66;4944162;29;20130;-88
2023/05/02 07:05:59;;;;;;;9.77;1.90;;;;;;;10.23;83.60;63772.22;4948891;29;20235;-89
2023/05/02 07:08:25;;;;;;;14.93;1.80;;;;;;;10.30;84.47;63779.81;4927707;29;20035;-93
2023/05/02 07:10:50;;;;;;;7.72;1.60;;;;;;;10.38;84.74;63787.63;4936650;29;20399;-89
2023/05/02 07:13:15;;;;;;;8.73;2.10;;;;;;;10.46;82.78;63795.44;4937801;28;20063;-88
2023/05/02 07:15:41;;;;;;;11.27;2.50;;;;;;;10.53;82.99;63802.50;4938013;28;20427;-91
2023/05/02 07:18:07;;;;;;;7.13;1.95;;;;;;;10.59;82.58;63808.66;4941385;28;20039;-88
2023/05/02 07:20:32;;;;;;;8.07;2.07;;;;;;;10.65;82.88;63814.56;4922002;29;20031;-88
2023/05/02 07:22:57;;;;;;;10.63;2.30;;;;;;;10.69;83.01;63818.53;4938776;28;20082;-89
2023/05/02 07:25:23;;;;;;;9.27;1.90;;;;;;;10.72;81.20;63822.22;4943793;28;20042;-88
2023/05/02 07:27:48;;;;;;;12.73;2.30;;;;;;;10.76;80.75;63825.63;4926782;29;20819;-93
2023/05/02 07:30:13;;;;;;;10.63;2.20;;;;;;;10.79;79.44;63829.03;4942750;28;20042;-91
2023/05/02 07:32:39;;;;;;;12.27;2.33;;;;;;;10.83;78.91;63833.25;4946836;29;20086;-89
2023/05/02 07:35:04;;;;;;;13.97;2.30;;;;;;;10.88;80.02;63838.25;4940798;29;20082;-89
2023/05/02 07:37:34;;;;;;;13.02;2.47;;;;;;;10.93;76.24;63843.50;4952207;29;20023;-89
2023/05/02 07:39:59;;;;;;;10.63;2.83;;;;;;;10.97;75.36;63848.41;4935690;29;20418;-91
2023/05/02 07:42:31;;;;;;;11.40;1.83;;;;;;;11.04;75.94;63855.41;4944041;29;20032;-91
2023/05/02 07:44:58;;;;;;;9.27;2.25;;;;;;;11.13;75.45;63864.47;4943786;29;20085;-93
2023/05/02 07:47:23;;;;;;;6.93;1.90;;;;;;;11.23;73.43;63874.44;4951613;29;20490;-93
2023/05/02 07:49:53;;;;;;;8.87;2.30;;;;;;;11.32;73.05;63882.69;4952573;29;20031;-93
2023/05/02 07:52:19;;;;;;;7.35;2.47;;;;;;;11.37;72.69;63888.34;4948461;29;20036;-93
2023/05/02 07:54:46;;;;;;;11.65;2.13;;;;;;;11.40;74.44;63891.34;4952936;29;20035;-94
2023/05/02 07:57:11;;;;;;;12.80;2.17;;;;;;;11.41;76.67;63892.25;4951846;29;20029;-93
2023/05/02 07:59:37;;;;;;;14.67;2.10;;;;;;;11.40;74.61;63891.50;4927290;29;20554;-92
2023/05/02 08:02:03;;;;;;;9.65;2.00;;;;;;;11.37;75.19;63888.59;4952912;29;20478;-93
2023/05/02 08:04:28;;;;;;;17.93;1.87;;;;;;;11.33;74.67;63884.91;4950615;29;20043;-91
2023/05/02 08:06:55;;;;;;;10.38;2.00;;;;;;;11.29;75.77;63881.34;4967626;28;20015;-92
2023/05/02 08:09:20;;;;;;;8.37;1.70;;;;;;;11.26;75.58;63878.28;4961428;28;20720;-93
2023/05/02 08:11:45;;;;;;;11.23;2.30;;;;;;;11.24;76.27;63875.69;4969234;28;20035;-92
2023/05/02 08:14:11;;;;;;;9.27;1.90;;;;;;;11.22;75.05;63873.78;4955139;28;20062;-92
2023/05/02 08:16:37;;;;;;;11.00;1.90;;;;;;;11.21;73.65;63873.03;4947978;29;20043;-94
2023/05/02 08:19:04;;;;;;;7.75;2.15;;;;;;;11.21;73.43;63873.03;4955845;29;20051;-94
2023/05/02 08:21:30;;;;;;;10.10;2.00;;;;;;;11.23;71.84;63874.28;4952371;29;20023;-94
2023/05/02 08:24:00;;;;;;;6.47;1.60;;;;;;;11.24;71.50;63876.09;4947887;29;20092;-93
2023/05/02 08:26:26;;;;;;;6.88;1.88;;;;;;;11.27;68.91;63878.59;4952285;29;20102;-92
2023/05/02 08:28:51;;;;;;;7.57;2.08;;;;;;;11.30;68.01;63882.28;4973403;29;20008;-92
2023/05/02 08:31:17;;;;;;;8.37;2.03;;;;;;;11.35;68.97;63886.91;4975388;29;20019;-93
2023/05/02 08:33:42;;;;;;;9.37;2.00;;;;;;;11.42;68.25;63894.06;4961366;28;20027;-93
2023/05/02 08:36:15;;;;;;;7.05;1.65;;;;;;;11.50;65.01;63902.31;4957043;28;20093;-93
2023/05/02 08:38:44;;;;;;;10.55;1.92;;;;;;;11.57;62.69;63909.06;4963394;28;20023;-92
2023/05/02 08:41:10;;;;;;;8.43;1.70;;;;;;;11.64;63.91;63916.53;4953103;28;20063;-92
2023/05/02 08:43:39;;;;;;;8.17;1.60;;;;;;;11.71;60.90;63924.28;4939696;28;20074;-93
2023/05/02 08:46:08;;;;;;;9.10;1.70;;;;;;;11.79;58.92;63932.09;4950436;28;20705;-92
2023/05/02 08:48:36;;;;;;;9.63;1.65;;;;;;;11.87;58.89;63940.59;4938741;29;20380;-89
2023/05/02 08:51:02;;;;;;;8.75;1.80;;;;;;;11.95;58.95;63947.91;4940000;29;20028;-92
2023/05/02 08:53:33;;;;;;;5.50;1.88;;;;;;;12.02;59.56;63955.75;4938216;29;20067;-89
2023/05/02 08:56:00;;;;;;;6.78;1.90;;;;;;;12.12;59.69;63965.56;4941897;29;20390;-91
2023/05/02 08:58:25;;;;;;;7.35;1.75;;;;;;;12.22;55.32;63975.16;4954354;29;20082;-92
2023/05/02 09:00:54;;;;;;;6.43;1.60;;;;;;;12.30;56.30;63983.81;4941224;29;20027;-92
2023/05/02 09:03:33;;;;;;;6.82;1.80;;;;;;;12.38;58.02;63992.06;4935016;29;20032;-92
2023/05/02 09:06:07;;;;;;;3.55;1.52;;;;;;;12.48;57.70;64001.72;4917332;29;20038;-91
2023/05/02 09:08:34;;;;;;;5.38;1.40;;;;;;;12.59;56.27;64012.78;4934714;29;20059;-92
2023/05/02 09:11:02;;;;;;;9.30;1.98;;;;;;;12.69;53.75;64023.28;4950360;29;20475;-89
2023/05/02 09:13:37;;;;;;;5.38;1.95;;;;;;;12.77;54.19;64030.94;4937501;29;20031;-90
2023/05/02 09:16:03;;;;;;;6.77;1.70;;;;;;;12.84;54.24;64037.84;4954752;29;20027;-89
2023/05/02 09:18:31;;;;;;;8.40;1.90;;;;;;;12.88;54.19;64042.41;4958748;29;20398;-91
2023/05/02 09:20:59;;;;;;;4.25;1.88;;;;;;;12.91;54.24;64046.03;4961011;29;20046;-90
2023/05/02 09:23:45;;;;;;;5.93;1.38;;;;;;;12.95;55.82;64050.16;4936834;29;20035;-88
2023/05/02 09:26:16;;;;;;;7.72;1.70;;;;;;;13.00;53.70;64054.84;4944358;29;20127;-89
2023/05/02 09:28:44;;;;;;;11.57;2.05;;;;;;;13.04;54.37;64059.09;4938743;29;20091;-88
2023/05/02 09:31:13;;;;;;;5.85;1.50;;;;;;;13.05;55.05;64060.00;4952268;29;20482;-89
2023/05/02 09:33:38;;;;;;;9.68;1.50;;;;;;;13.06;56.35;64060.75;4940711;29;20054;-91
2023/05/02 09:36:06;;;;;;;5.87;1.80;;;;;;;13.08;55.96;64063.59;4933909;29;20067;-90
2023/05/02 09:38:32;;;;;;;8.48;2.05;;;;;;;13.11;54.56;64066.25;4920819;29;20036;-94
2023/05/02 09:40:58;;;;;;;6.75;2.10;;;;;;;13.14;54.90;64069.81;4936969;29;20020;-87
2023/05/02 09:43:23;;;;;;;11.38;2.03;;;;;;;13.21;54.51;64076.59;4932672;29;20066;-89
2023/05/02 09:45:56;;;;;;;6.80;1.43;;;;;;;13.29;54.13;64085.50;4950955;28;20062;-94
2023/05/02 09:48:21;;;;;;;10.18;2.10;;;;;;;13.37;53.23;64093.56;4947026;29;20078;-92
2023/05/02 09:50:47;;;;;;;10.80;2.30;;;;;;;13.47;54.20;64103.75;4949318;29;20056;-88
2023/05/02 09:53:12;;;;;;;7.47;1.80;;;;;;;13.57;52.71;64114.09;4953666;29;20031;-91
2023/05/02 09:55:38;;;;;;;10.67;2.20;;;;;;;13.67;51.39;64124.50;4956935;29;20035;-90
2023/05/02 09:58:05;;;;;;;8.75;2.00;;;;;;;13.76;51.09;64133.34;4954888;29;20078;-91
2023/05/02 10:00:41;;;;;;;11.25;2.10;;;;;;;13.84;52.62;64141.09;4937182;29;20035;-91
2023/05/02 10:03:07;;;;;;;11.15;3.00;;;;;;;13.90;53.14;64147.44;4954043;29;20031;-92
2023/05/02 10:05:35;;;;;;;11.63;2.40;;;;;;;13.95;55.44;64153.00;4956624;29;20038;-93
2023/05/02 10:08:02;;;;;;;10.43;2.60;;;;;;;14.02;52.82;64159.75;4958955;29;20309;-88
2023/05/02 10:10:28;;;;;;;13.20;2.63;;;;;;;14.09;54.09;64167.34;4946497;29;20459;-94
2023/05/02 10:12:54;;;;;;;10.70;2.40;;;;;;;14.13;51.94;64171.13;4951268;29;20023;-90
2023/05/02 10:15:21;;;;;;;10.93;2.35;;;;;;;14.13;52.70;64171.53;4938830;29;20352;-88
2023/05/02 10:17:48;;;;;;;10.73;2.67;;;;;;;14.12;55.47;64170.28;4954307;29;20050;-86
2023/05/02 10:20:21;;;;;;;9.82;2.30;;;;;;;14.15;56.12;64173.75;4933590;29;20028;-86
2023/05/02 10:22:49;;;;;;;10.30;2.50;;;;;;;14.23;52.59;64182.19;4942650;29;20031;-88
2023/05/02 10:25:15;;;;;;;11.33;2.53;;;;;;;14.33;51.13;64191.97;4961986;29;20056;-90
2023/05/02 10:27:40;;;;;;;8.13;2.10;;;;;;;14.41;48.99;64199.63;4967127;29;20635;-91
2023/05/02 10:30:07;;;;;;;6.10;1.90;;;;;;;14.46;49.63;64205.13;4964176;28;20023;-93
2023/05/02 10:32:35;;;;;;;8.73;2.20;;;;;;;14.49;50.22;64208.13;4944881;29;20471;-91
2023/05/02 10:35:06;;;;;;;5.57;2.47;;;;;;;14.51;49.75;64210.47;4926801;29;20085;-89
2023/05/02 10:37:36;;;;;;;9.90;2.20;;;;;;;14.53;50.86;64212.63;4940869;29;20098;-93
2023/05/02 10:40:02;;;;;;;8.95;2.20;;;;;;;14.56;49.40;64215.72;4954987;29;20023;-89
2023/05/02 10:42:29;;;;;;;9.23;2.15;;;;;;;14.60;50.18;64220.16;4939325;29;20032;-88
2023/05/02 10:44:55;;;;;;;9.98;2.05;;;;;;;14.66;48.41;64226.63;4938303;29;20027;-87
2023/05/02 10:47:22;;;;;;;10.43;1.95;;;;;;;14.74;48.62;64235.06;4940722;29;20139;-89
2023/05/02 10:49:53;;;;;;;6.80;1.80;;;;;;;14.82;48.50;64242.75;4937766;29;20032;-89
2023/05/02 10:52:26;;;;;;;7.87;2.33;;;;;;;14.89;48.79;64249.16;4918614;29;20820;-88
2023/05/02 10:55:11;;;;;;;8.00;2.28;;;;;;;14.95;48.05;64255.53;4934489;29;20020;-87
2023/05/02 10:58:02;;;;;;;7.18;2.22;;;;;;;15.01;47.66;64261.28;4934413;29;20023;-87
2023/05/02 11:00:32;;;;;;;8.27;2.10;;;;;;;15.05;48.76;64265.28;4937494;29;20043;-87
2023/05/02 11:02:58;;;;;;;5.70;1.98;;;;;;;15.07;48.91;64267.78;4944558;29;20031;-87
2023/05/02 11:05:24;;;;;;;5.30;1.88;;;;;;;15.08;46.88;64267.88;4938020;29;20057;-89
2023/05/02 11:08:16;;;;;;;8.55;1.98;;;;;;;15.07;47.94;64267.63;4939262;29;20658;-88
2023/05/02 11:10:41;;;;;;;5.70;2.00;;;;;;;15.12;46.92;64272.53;4933014;29;20533;-88
2023/05/02 11:13:06;;;;;;;10.93;2.27;;;;;;;15.19;44.58;64278.88;4950313;29;20319;-90
2023/05/02 11:15:32;;;;;;;4.97;2.00;;;;;;;15.22;45.55;64282.72;4943012;29;20024;-88
2023/05/02 11:18:06;;;;;;;7.07;1.87;;;;;;;15.23;46.87;64283.47;4953237;28;20043;-89
2023/05/02 11:20:32;;;;;;;5.63;2.33;;;;;;;15.21;46.69;64281.63;4937029;29;20027;-94
2023/05/02 11:23:24;;;;;;;7.75;2.00;;;;;;;15.20;48.03;64280.22;4962976;29;20067;-94
2023/05/02 11:25:53;;;;;;;4.28;1.95;;;;;;;15.22;45.44;64282.97;4956581;28;20040;-94
2023/05/02 11:28:48;;;;;;;5.68;2.30;;;;;;;15.30;46.59;64290.56;4955193;28;20086;-89
2023/05/02 11:31:35;;;;;;;8.90;2.00;;;;;;;15.38;44.79;64299.25;4944011;29;20550;-93